Ark, VA

12:15 PM EST on February 13, 2016 (GMT -0500)
Deer Run | | Change Station
CLOSE
Current Station
Personal Weather Station
Location: Gloucester, VA
Elevation: 105 ft
Nearby Weather Stations

Elev 105 ft 37.41 °N, 76.56 °W | Updated 1 minute ago

Clear
Clear
29.7 °F
Feels Like 27 °F
N
3.1
Wind Variable Wind from East
Gusts 13.6 mph

Today
High -- | Low -- °F
--% Chance of Precip.
Yesterday
High -- | Low -- °F
Precip. -- in
Pressure 30.28 in
Visibility 10.0 miles
Clouds Scattered Clouds 7000 ft
Windchill 27 °F
Dew Point -0 °F
Humidity 27%
Rainfall 0.00 in
Snow Depth Not available.
6:58 AM 5:43 PM
Waxing Crescent, 32% visible
METAR KFYJ 131655Z AUTO 28012G16KT 10SM SCT070 M02/M19 A3028 RMK AO2 T10161194
Pressure 30.28 in
Visibility 10.0 miles
Clouds Scattered Clouds 7000 ft
Windchill 27 °F
Dew Point -0 °F
Humidity 27%
Rainfall 0.00 in
Snow Depth Not available.
6:58 AM 5:43 PM
Waxing Crescent, 32% visible
METAR KFYJ 131655Z AUTO 28012G16KT 10SM SCT070 M02/M19 A3028 RMK AO2 T10161194

10-Day Weather Forecast

Almanac

Astronomy

Feb. 13, 2016 Rise Set
Actual Time
Civil Twilight
Nautical Twilight
Astronomical Twilight
Moon
Length of Visible Light
Length of Day
Tomorrow will be .
, % of the Moon is Illuminated

Today's Extremes

State Highs State Lows

Community

WunderPhotos

Upload Photos

1,892,615 photos uploaded!

WunderBlog® & News

Nearby

Air Quality

  Air Quality AQ Index Pollutant
Not available.

Snow Depth

Station Depth Elevation

Earthquake Activity

City Distance Mag. Time & Date
Minimum magnitude displayed is 2.5.

Coastal Water Temperatures

Place Temperature

Stations

Nearby Weather Stations

Station Location Temp. Windchill Dew Point Humidity Wind Precip. Elev Updated Type
                   

Watches & Warnings

There are currently no watches in effect.